createdAt,value
2022-10-01T00:01:13.233Z,11.26
2022-10-01T00:03:40.154Z,11.25
2022-10-01T00:06:13.585Z,11.24
2022-10-01T00:08:41.942Z,11.25
2022-10-01T00:11:12.114Z,11.26
2022-10-01T00:13:39.867Z,11.28
2022-10-01T00:16:08.964Z,11.26
2022-10-01T00:18:37.759Z,11.23
2022-10-01T00:21:07.345Z,11.23
2022-10-01T00:23:33.863Z,11.24
2022-10-01T00:26:14.902Z,11.25
2022-10-01T00:28:43.015Z,11.25
2022-10-01T00:31:10.290Z,11.23
2022-10-01T00:33:37.296Z,11.21
2022-10-01T00:36:05.414Z,11.20
2022-10-01T00:38:32.847Z,11.20
2022-10-01T00:40:59.904Z,11.18
2022-10-01T00:43:29.173Z,11.18
2022-10-01T00:46:01.860Z,11.17
2022-10-01T00:48:30.594Z,11.15
2022-10-01T00:50:58.168Z,11.15
2022-10-01T00:53:25.454Z,11.14
2022-10-01T00:55:58.353Z,11.15
2022-10-01T00:58:25.266Z,11.13
2022-10-01T01:00:55.166Z,11.13
2022-10-01T01:03:21.735Z,11.15
2022-10-01T01:05:50.333Z,11.15
2022-10-01T01:08:17.886Z,11.19
2022-10-01T01:10:54.941Z,11.20
2022-10-01T01:13:35.684Z,11.20
2022-10-01T01:16:11.945Z,11.20
2022-10-01T01:18:48.633Z,11.19
2022-10-01T01:21:30.073Z,11.21
2022-10-01T01:24:04.748Z,11.24
2022-10-01T01:26:54.752Z,11.21
2022-10-01T01:29:26.393Z,11.20
2022-10-01T01:31:58.477Z,11.20
2022-10-01T01:34:30.686Z,11.22
2022-10-01T01:37:02.360Z,11.24
2022-10-01T01:39:33.244Z,11.21
2022-10-01T01:42:06.881Z,11.20
2022-10-01T01:44:39.022Z,11.19
2022-10-01T01:47:10.528Z,11.19
2022-10-01T01:49:39.388Z,11.19
2022-10-01T01:52:13.335Z,11.18
2022-10-01T01:54:40.763Z,11.20
2022-10-01T01:57:08.866Z,11.19
2022-10-01T01:59:35.942Z,11.20
2022-10-01T02:02:07.027Z,11.21
2022-10-01T02:04:41.125Z,11.23
2022-10-01T02:07:30.691Z,11.20
2022-10-01T02:10:17.013Z,11.18
2022-10-01T02:13:25.462Z,11.18
2022-10-01T02:16:04.462Z,11.19
2022-10-01T02:18:36.251Z,11.18
2022-10-01T02:21:19.956Z,11.21
2022-10-01T02:23:58.093Z,11.19
2022-10-01T02:26:28.366Z,11.17
2022-10-01T02:28:59.479Z,11.17
2022-10-01T02:31:29.202Z,11.20
2022-10-01T02:33:58.327Z,11.18
2022-10-01T02:36:27.976Z,11.18
2022-10-01T02:38:55.981Z,11.18
2022-10-01T02:41:33.976Z,11.19
2022-10-01T02:44:11.024Z,11.19
2022-10-01T02:46:45.330Z,11.21
2022-10-01T02:49:13.376Z,11.22
2022-10-01T02:51:53.572Z,11.22
2022-10-01T02:54:27.033Z,11.20
2022-10-01T02:57:11.968Z,11.22
2022-10-01T02:59:38.434Z,11.24
2022-10-01T03:02:05.044Z,11.24
2022-10-01T03:04:32.120Z,11.25
2022-10-01T03:07:03.585Z,11.27
2022-10-01T03:09:31.958Z,11.27
2022-10-01T03:11:59.785Z,11.28
2022-10-01T03:14:26.560Z,11.29
2022-10-01T03:16:56.115Z,11.28
2022-10-01T03:19:22.913Z,11.28
2022-10-01T03:21:49.388Z,11.30
2022-10-01T03:24:38.269Z,11.29
2022-10-01T03:27:07.294Z,11.32
2022-10-01T03:29:35.031Z,11.33
2022-10-01T03:32:01.733Z,11.33
2022-10-01T03:34:35.774Z,11.35
2022-10-01T03:37:05.488Z,11.36
2022-10-01T03:39:32.232Z,11.35
2022-10-01T03:41:58.861Z,11.37
2022-10-01T03:44:25.515Z,11.39
2022-10-01T03:46:52.072Z,11.40
2022-10-01T03:52:08.909Z,11.40
2022-10-01T03:55:01.633Z,11.41
2022-10-01T03:57:30.831Z,11.43
2022-10-01T04:00:00.043Z,11.45
2022-10-01T04:02:54.752Z,11.45
2022-10-01T04:05:22.769Z,11.46
2022-10-01T04:10:36.380Z,11.51
2022-10-01T04:13:03.357Z,11.53
2022-10-01T04:15:30.262Z,11.55
2022-10-01T04:17:59.854Z,11.55
2022-10-01T04:20:27.924Z,11.56
2022-10-01T04:22:54.621Z,11.58
2022-10-01T04:25:21.212Z,11.58
2022-10-01T04:28:00.877Z,11.59
2022-10-01T04:30:29.861Z,11.60
2022-10-01T04:32:56.410Z,11.61
2022-10-01T04:35:28.562Z,11.62
2022-10-01T04:38:04.095Z,11.63
2022-10-01T04:40:34.513Z,11.64
2022-10-01T04:43:04.593Z,11.64
2022-10-01T04:45:32.248Z,11.68
2022-10-01T04:47:59.591Z,11.69
2022-10-01T04:50:27.464Z,11.71
2022-10-01T04:52:55.369Z,11.71
2022-10-01T04:55:41.935Z,11.72
2022-10-01T04:58:12.553Z,11.74
2022-10-01T05:00:39.085Z,11.75
2022-10-01T05:03:06.158Z,11.76
2022-10-01T05:05:35.064Z,11.78
2022-10-01T05:08:05.530Z,11.80
2022-10-01T05:10:32.320Z,11.81
2022-10-01T05:13:01.563Z,11.82
2022-10-01T05:15:30.724Z,11.82
2022-10-01T05:18:02.805Z,11.81
2022-10-01T05:20:29.686Z,11.82
2022-10-01T05:22:58.578Z,11.81
2022-10-01T05:25:25.198Z,11.83
2022-10-01T05:27:52.998Z,11.85
2022-10-01T05:30:24.458Z,11.86
2022-10-01T05:32:56.395Z,11.84
2022-10-01T05:35:23.058Z,11.85
2022-10-01T05:37:53.313Z,11.85
2022-10-01T05:40:23.005Z,11.85
2022-10-01T05:42:49.665Z,11.84
2022-10-01T05:47:58.602Z,11.82
2022-10-01T05:50:27.209Z,11.81
2022-10-01T05:52:54.771Z,11.77
2022-10-01T05:55:22.197Z,11.75
2022-10-01T05:57:56.299Z,11.75
2022-10-01T06:00:23.044Z,11.75
2022-10-01T06:02:52.429Z,11.74
2022-10-01T06:05:20.071Z,11.73
2022-10-01T06:07:47.301Z,11.72
2022-10-01T06:10:13.908Z,11.72
2022-10-01T06:12:40.639Z,11.72
2022-10-01T06:15:07.803Z,11.73
2022-10-01T06:17:34.350Z,11.72
2022-10-01T06:20:01.221Z,11.73
2022-10-01T06:22:29.918Z,11.73
2022-10-01T06:24:56.843Z,11.75
2022-10-01T06:27:23.379Z,11.77
2022-10-01T06:29:49.828Z,11.76
2022-10-01T06:32:19.758Z,11.79
2022-10-01T06:34:46.268Z,11.80
2022-10-01T06:37:12.861Z,11.81
2022-10-01T06:39:39.498Z,11.83
2022-10-01T06:42:24.584Z,11.86
2022-10-01T06:44:51.150Z,11.88
2022-10-01T06:47:17.901Z,11.90
2022-10-01T06:49:47.478Z,11.90
2022-10-01T06:52:44.135Z,11.94
2022-10-01T06:55:15.689Z,11.99
2022-10-01T06:57:43.237Z,12.03
2022-10-01T07:00:10.514Z,12.05
2022-10-01T07:06:22.360Z,12.21
2022-10-01T07:08:22.482Z,12.29
2022-10-01T07:13:31.654Z,12.45
2022-10-01T07:15:58.254Z,12.54
2022-10-01T07:18:26.147Z,12.61
2022-10-01T07:20:52.779Z,12.68
2022-10-01T07:23:25.823Z,12.77
2022-10-01T07:28:35.734Z,12.82
2022-10-01T07:31:07.249Z,12.83
2022-10-01T07:33:35.183Z,12.85
2022-10-01T07:36:04.726Z,12.87
2022-10-01T07:38:33.445Z,12.88
2022-10-01T07:41:02.558Z,12.90
2022-10-01T07:43:31.123Z,12.91
2022-10-01T07:45:58.393Z,12.92
2022-10-01T07:48:25.842Z,12.94
2022-10-01T07:50:52.963Z,12.98
2022-10-01T07:53:19.738Z,13.00
2022-10-01T07:55:46.222Z,13.02
2022-10-01T07:58:13.108Z,13.04
2022-10-01T08:00:40.039Z,13.06
2022-10-01T08:03:06.605Z,13.10
2022-10-01T08:05:35.852Z,13.16
2022-10-01T08:08:05.484Z,13.15
2022-10-01T08:10:35.419Z,13.15
2022-10-01T08:13:12.629Z,13.14
2022-10-01T08:15:39.176Z,13.17
2022-10-01T08:18:06.048Z,13.17
2022-10-01T08:20:32.536Z,13.19
2022-10-01T08:23:03.621Z,13.25
2022-10-01T08:25:30.330Z,13.30
2022-10-01T08:27:57.472Z,13.33
2022-10-01T08:30:24.493Z,13.33
2022-10-01T08:32:54.899Z,13.32
2022-10-01T08:35:22.163Z,13.35
2022-10-01T08:37:48.902Z,13.36
2022-10-01T08:40:16.016Z,13.37
2022-10-01T08:42:54.074Z,13.40
2022-10-01T08:45:26.174Z,13.42
2022-10-01T08:48:02.275Z,13.48
2022-10-01T08:50:32.262Z,13.60
2022-10-01T08:53:07.610Z,13.72
2022-10-01T08:55:37.495Z,13.75
2022-10-01T08:58:24.064Z,13.72
2022-10-01T09:00:55.586Z,13.70
2022-10-01T09:03:29.531Z,13.71
2022-10-01T09:06:11.348Z,13.73
2022-10-01T09:08:53.598Z,13.74
2022-10-01T09:11:34.361Z,13.77
2022-10-01T09:14:11.806Z,13.81
2022-10-01T09:16:55.877Z,13.83
2022-10-01T09:19:33.562Z,13.88
2022-10-01T09:22:06.051Z,13.92
2022-10-01T09:24:55.195Z,14.00
2022-10-01T09:27:27.641Z,14.07
2022-10-01T09:30:01.607Z,14.15
2022-10-01T09:32:35.463Z,14.27
2022-10-01T09:35:11.906Z,14.37
2022-10-01T09:37:53.654Z,14.36
2022-10-01T09:40:45.363Z,14.35
2022-10-01T09:43:12.624Z,14.46
2022-10-01T09:45:39.418Z,14.56
2022-10-01T09:48:26.780Z,14.66
2022-10-01T09:51:02.026Z,14.72
2022-10-01T09:53:36.914Z,14.76
2022-10-01T09:56:10.723Z,14.81
2022-10-01T09:58:44.723Z,14.87
2022-10-01T10:01:21.019Z,14.88
2022-10-01T10:03:58.110Z,14.94
2022-10-01T10:06:28.551Z,14.87
2022-10-01T10:08:58.210Z,14.70
2022-10-01T10:11:28.575Z,14.59
2022-10-01T10:14:00.286Z,14.56
2022-10-01T10:16:30.923Z,14.56
2022-10-01T10:19:15.696Z,14.56
2022-10-01T10:21:52.401Z,14.60
2022-10-01T10:24:26.523Z,14.62
2022-10-01T10:26:58.628Z,14.61
2022-10-01T10:32:37.128Z,14.53
2022-10-01T10:35:10.304Z,14.54
2022-10-01T10:37:56.022Z,14.62
2022-10-01T10:41:07.734Z,14.66
2022-10-01T10:46:33.766Z,14.78
2022-10-01T10:49:39.717Z,14.86
2022-10-01T10:53:20.285Z,14.98
2022-10-01T10:55:26.155Z,15.02
2022-10-01T10:58:14.515Z,15.07
2022-10-01T11:03:55.491Z,15.30
2022-10-01T11:06:25.403Z,15.32
2022-10-01T11:09:01.935Z,15.35
2022-10-01T11:15:16.466Z,15.39
2022-10-01T11:18:19.368Z,15.39
2022-10-01T11:31:30.557Z,14.93
2022-10-01T11:34:14.132Z,14.84
2022-10-01T11:37:05.589Z,14.80
2022-10-01T11:39:35.444Z,14.81
2022-10-01T11:42:07.991Z,14.82
2022-10-01T11:44:46.775Z,14.84
2022-10-01T11:47:21.207Z,14.90
2022-10-01T11:50:11.364Z,14.94
2022-10-01T11:52:42.077Z,15.03
2022-10-01T11:55:42.768Z,15.12
2022-10-01T11:58:55.801Z,15.27
2022-10-01T12:01:29.217Z,15.29
2022-10-01T12:04:04.053Z,15.30
2022-10-01T12:06:38.200Z,15.25
2022-10-01T12:09:14.421Z,15.20
2022-10-01T12:11:51.004Z,15.11
2022-10-01T12:14:24.637Z,15.10
2022-10-01T12:17:00.101Z,15.15
2022-10-01T12:19:33.555Z,15.17
2022-10-01T12:22:20.305Z,15.17
2022-10-01T12:24:58.182Z,15.26
2022-10-01T12:28:04.296Z,15.32
2022-10-01T12:30:54.458Z,15.36
2022-10-01T12:34:06.185Z,15.41
2022-10-01T12:36:45.581Z,15.49
2022-10-01T12:42:31.248Z,15.53
2022-10-01T12:45:32.776Z,15.47
2022-10-01T12:48:17.985Z,15.40
2022-10-01T12:50:56.413Z,15.32
2022-10-01T12:53:44.621Z,15.23
2022-10-01T12:56:24.840Z,15.22
2022-10-01T12:59:06.507Z,15.27
2022-10-01T13:01:43.763Z,15.35
2022-10-01T13:04:32.143Z,15.40
2022-10-01T13:07:13.307Z,15.40
2022-10-01T13:09:56.145Z,15.37
2022-10-01T13:13:01.300Z,15.34
2022-10-01T13:15:36.061Z,15.29
2022-10-01T13:18:26.077Z,15.29
2022-10-01T13:21:19.846Z,15.30
2022-10-01T13:23:55.477Z,15.29
2022-10-01T13:26:37.274Z,15.30
2022-10-01T13:29:14.467Z,15.36
2022-10-01T13:31:57.382Z,15.43
2022-10-01T13:34:32.074Z,15.54
2022-10-01T13:37:13.258Z,15.65
2022-10-01T13:39:42.187Z,15.67
2022-10-01T13:42:20.277Z,15.66
2022-10-01T13:44:53.239Z,15.60
2022-10-01T13:47:21.060Z,15.53
2022-10-01T13:49:58.455Z,15.54
2022-10-01T13:52:25.492Z,15.63
2022-10-01T13:54:58.059Z,15.73
2022-10-01T13:57:30.999Z,15.76
2022-10-01T13:59:59.815Z,15.70
2022-10-01T14:02:34.687Z,15.64
2022-10-01T14:05:23.135Z,15.59
2022-10-01T14:07:55.382Z,15.52
2022-10-01T14:10:25.883Z,15.48
2022-10-01T14:13:10.993Z,15.47
2022-10-01T14:15:59.922Z,15.49
2022-10-01T14:18:34.628Z,15.50
2022-10-01T14:21:20.698Z,15.59
2022-10-01T14:24:04.343Z,15.63
2022-10-01T14:29:42.265Z,15.65
2022-10-01T14:32:17.835Z,15.64
2022-10-01T14:34:59.091Z,15.62
2022-10-01T14:37:27.520Z,15.61
2022-10-01T14:40:17.259Z,15.59
2022-10-01T14:42:44.623Z,15.54
2022-10-01T14:45:16.627Z,15.46
2022-10-01T14:47:43.391Z,15.38
2022-10-01T14:50:12.988Z,15.36
2022-10-01T14:52:44.154Z,15.27
2022-10-01T14:55:36.758Z,15.16
2022-10-01T14:58:05.257Z,15.04
2022-10-01T15:00:33.332Z,14.98
2022-10-01T15:03:13.378Z,14.99
2022-10-01T15:05:40.057Z,14.98
2022-10-01T15:08:40.646Z,14.99
2022-10-01T15:11:44.616Z,15.01
2022-10-01T15:14:04.067Z,14.95
2022-10-01T15:16:33.354Z,14.92
2022-10-01T15:19:04.967Z,14.88
2022-10-01T15:21:37.718Z,14.81
2022-10-01T15:24:07.297Z,14.83
2022-10-01T15:26:34.370Z,14.89
2022-10-01T15:29:03.071Z,14.87
2022-10-01T15:31:30.357Z,14.87
2022-10-01T15:33:57.284Z,14.86
2022-10-01T15:36:23.879Z,14.85
2022-10-01T15:38:51.026Z,14.86
2022-10-01T15:41:31.871Z,14.86
2022-10-01T15:44:03.129Z,14.87
2022-10-01T15:46:33.397Z,14.88
2022-10-01T15:49:26.345Z,14.90
2022-10-01T15:52:16.506Z,14.90
2022-10-01T15:54:44.967Z,14.90
2022-10-01T15:57:20.764Z,14.86
2022-10-01T15:59:50.496Z,14.88
2022-10-01T16:02:25.228Z,14.88
2022-10-01T16:04:56.896Z,14.91
2022-10-01T16:07:30.370Z,14.90
2022-10-01T16:10:00.011Z,14.87
2022-10-01T16:12:28.089Z,14.85
2022-10-01T16:15:01.100Z,14.81
2022-10-01T16:17:38.638Z,14.73
2022-10-01T16:20:14.124Z,14.67
2022-10-01T16:22:41.411Z,14.61
2022-10-01T16:25:17.087Z,14.57
2022-10-01T16:27:46.292Z,14.53
2022-10-01T16:30:20.621Z,14.48
2022-10-01T16:32:47.650Z,14.45
2022-10-01T16:35:25.091Z,14.41
2022-10-01T16:37:55.181Z,14.38
2022-10-01T16:40:31.693Z,14.36
2022-10-01T16:43:00.264Z,14.33
2022-10-01T16:45:32.692Z,14.28
2022-10-01T16:48:00.557Z,14.28
2022-10-01T16:50:27.275Z,14.25
2022-10-01T16:52:56.590Z,14.24
2022-10-01T16:55:25.991Z,14.23
2022-10-01T16:57:54.842Z,14.23
2022-10-01T17:00:23.931Z,14.19
2022-10-01T17:02:50.600Z,14.20
2022-10-01T17:05:20.211Z,14.20
2022-10-01T17:07:46.906Z,14.19
2022-10-01T17:10:14.359Z,14.18
2022-10-01T17:12:41.593Z,14.18
2022-10-01T17:15:13.127Z,14.16
2022-10-01T17:17:39.707Z,14.12
2022-10-01T17:20:06.431Z,14.07
2022-10-01T17:22:33.242Z,14.03
2022-10-01T17:24:59.849Z,14.02
2022-10-01T17:27:26.745Z,13.99
2022-10-01T17:29:54.287Z,13.94
2022-10-01T17:32:20.941Z,13.89
2022-10-01T17:34:47.786Z,13.85
2022-10-01T17:37:14.543Z,13.82
2022-10-01T17:39:43.015Z,13.76
2022-10-01T17:42:10.607Z,13.72
2022-10-01T17:44:37.130Z,13.67
2022-10-01T17:47:04.472Z,13.63
2022-10-01T17:49:30.984Z,13.59
2022-10-01T17:51:57.488Z,13.55
2022-10-01T17:54:24.417Z,13.49
2022-10-01T17:56:55.305Z,13.46
2022-10-01T17:59:22.202Z,13.42
2022-10-01T18:01:48.847Z,13.40
2022-10-01T18:04:15.506Z,13.37
2022-10-01T18:06:42.867Z,13.32
2022-10-01T18:09:09.613Z,13.27
2022-10-01T18:11:36.263Z,13.21
2022-10-01T18:14:02.747Z,13.16
2022-10-01T18:16:29.485Z,13.13
2022-10-01T18:19:52.320Z,13.11
2022-10-01T18:21:44.518Z,13.12
2022-10-01T18:24:11.122Z,13.13
2022-10-01T18:26:38.279Z,13.11
2022-10-01T18:29:05.143Z,13.06
2022-10-01T18:31:38.076Z,13.02
2022-10-01T18:34:15.049Z,12.98
2022-10-01T18:36:55.793Z,12.95
2022-10-01T18:39:31.537Z,12.95
2022-10-01T18:41:58.393Z,12.91
2022-10-01T18:44:25.279Z,12.85
2022-10-01T18:47:15.777Z,12.83
2022-10-01T18:49:49.395Z,12.78
2022-10-01T18:52:26.601Z,12.78
2022-10-01T18:54:58.344Z,12.77
2022-10-01T18:58:07.451Z,12.73
2022-10-01T19:00:48.941Z,12.70
2022-10-01T19:03:37.197Z,12.69
2022-10-01T19:06:17.753Z,12.67
2022-10-01T19:08:58.604Z,12.66
2022-10-01T19:11:51.862Z,12.64
2022-10-01T19:14:22.751Z,12.61
2022-10-01T19:17:09.264Z,12.59
2022-10-01T19:19:43.622Z,12.57
2022-10-01T19:22:22.514Z,12.56
2022-10-01T19:25:08.967Z,12.56
2022-10-01T19:27:52.435Z,12.55
2022-10-01T19:30:19.915Z,12.54
2022-10-01T19:32:55.941Z,12.57
2022-10-01T19:35:36.151Z,12.56
2022-10-01T19:38:06.073Z,12.57
2022-10-01T19:40:55.619Z,12.58
2022-10-01T19:43:32.709Z,12.59
2022-10-01T19:46:09.090Z,12.62
2022-10-01T19:49:00.661Z,12.61
2022-10-01T19:51:34.792Z,12.62
2022-10-01T19:54:02.665Z,12.64
2022-10-01T19:56:32.317Z,12.65
2022-10-01T19:59:10.783Z,12.66
2022-10-01T20:01:46.167Z,12.64
2022-10-01T20:04:21.908Z,12.64
2022-10-01T20:07:00.113Z,12.63
2022-10-01T20:09:36.969Z,12.60
2022-10-01T20:12:16.915Z,12.59
2022-10-01T20:15:06.950Z,12.56
2022-10-01T20:17:42.734Z,12.52
2022-10-01T20:20:21.110Z,12.49
2022-10-01T20:23:40.557Z,12.47
2022-10-01T20:26:29.778Z,12.46
2022-10-01T20:29:08.297Z,12.44
2022-10-01T20:31:51.966Z,12.45
2022-10-01T20:34:43.067Z,12.45
2022-10-01T20:37:43.277Z,12.43
2022-10-01T20:40:09.774Z,12.43
2022-10-01T20:43:01.772Z,12.42
2022-10-01T20:45:33.435Z,12.41
2022-10-01T20:53:39.065Z,12.34
2022-10-01T20:56:15.535Z,12.28
2022-10-01T20:58:49.854Z,12.27
2022-10-01T21:01:20.921Z,12.23
2022-10-01T21:04:01.512Z,12.23
2022-10-01T21:06:42.488Z,12.24
2022-10-01T21:09:18.084Z,12.26
2022-10-01T21:11:49.937Z,12.21
2022-10-01T21:14:25.463Z,12.18
2022-10-01T21:17:13.484Z,12.13
2022-10-01T21:19:49.258Z,12.09
2022-10-01T21:22:38.450Z,12.08
2022-10-01T21:25:18.506Z,12.04
2022-10-01T21:28:05.314Z,12.04
2022-10-01T21:30:48.739Z,12.03
2022-10-01T21:33:25.421Z,12.00
2022-10-01T21:36:01.414Z,11.99
2022-10-01T21:38:39.808Z,11.97
2022-10-01T21:41:19.068Z,11.97
2022-10-01T21:43:59.532Z,12.00
2022-10-01T21:46:51.443Z,12.01
2022-10-01T21:49:41.283Z,11.99
2022-10-01T21:52:28.291Z,11.96
2022-10-01T21:55:20.902Z,11.95
2022-10-01T21:57:54.551Z,11.95
2022-10-01T22:00:24.870Z,11.96
2022-10-01T22:02:58.641Z,11.98
2022-10-01T22:05:37.455Z,11.98
2022-10-01T22:08:03.999Z,11.98
2022-10-01T22:10:38.783Z,11.98
2022-10-01T22:13:14.770Z,11.98
2022-10-01T22:15:43.611Z,11.99
2022-10-01T22:18:29.755Z,11.98
2022-10-01T22:20:58.207Z,11.98
2022-10-01T22:23:29.491Z,11.98
2022-10-01T22:25:58.599Z,12.00
2022-10-01T22:28:38.859Z,12.02
2022-10-01T22:31:09.805Z,12.04
2022-10-01T22:33:41.705Z,12.05
2022-10-01T22:36:14.385Z,12.05
2022-10-01T22:38:46.837Z,12.07
2022-10-01T22:41:28.271Z,12.11
2022-10-01T22:43:55.126Z,12.17
2022-10-01T22:46:41.211Z,12.21
2022-10-01T22:49:39.108Z,12.27
2022-10-01T22:52:06.647Z,12.35
2022-10-01T22:55:02.094Z,12.40
2022-10-01T23:01:05.263Z,12.51
2022-10-01T23:03:45.994Z,12.53
2022-10-01T23:06:29.743Z,12.55
2022-10-01T23:09:14.477Z,12.56
2022-10-01T23:12:09.427Z,12.58
2022-10-01T23:15:19.253Z,12.60
2022-10-01T23:18:00.362Z,12.59
2022-10-01T23:20:57.248Z,12.60
2022-10-01T23:23:37.184Z,12.60
2022-10-01T23:26:16.226Z,12.61
2022-10-01T23:29:14.189Z,12.61
2022-10-01T23:31:54.167Z,12.60
2022-10-01T23:35:03.974Z,12.60
2022-10-01T23:37:52.584Z,12.60
2022-10-01T23:40:23.338Z,12.60
2022-10-01T23:42:58.529Z,12.58
2022-10-01T23:45:32.652Z,12.58
2022-10-01T23:48:08.591Z,12.56
2022-10-01T23:51:06.265Z,12.53
2022-10-01T23:53:44.245Z,12.52
2022-10-01T23:56:42.895Z,12.48
2022-10-01T23:59:17.937Z,12.50
